81ND weather

Millers Airstrip
Deering, North Dakota, United States

Public forecast

Using degrees Fahrenheit for public forecast. Weather courtesy of forecast.io.

METAR (pilot weather report)

Closest report is Minot International Airport, 12.2 nm (22.5 km) SW. Retrieved 2019/09/23 09:54 UTC (8 minutes ago):

KMOT 230954Z AUTO 23009KT 10SM CLR 12/08 A2984 RMK AO2 SLP105 T01170083

TAF (pilot weather forecast)

Closest forecast is Minot International Airport, 12.2 nm (22.5 km) SW. Retrieved 2019/09/23 06:22 UTC (4 hours ago):

TAF KMOT 230520Z 2306/2406 23007KT P6SM FEW090 FEW250 FM231400 21006KT P6SM SKC FM231800 20012KT P6SM FEW090 FEW250 FM240100 22009KT P6SM FEW070 FEW250 FM240300 25008KT P6SM SKC